createdAt,value
2022-08-17T00:00:42.746Z,4.82
2022-08-17T00:03:10.952Z,5.85
2022-08-17T00:05:45.320Z,6.10
2022-08-17T00:08:15.024Z,5.80
2022-08-17T00:10:43.437Z,5.25
2022-08-17T00:13:15.934Z,5.57
2022-08-17T00:15:45.424Z,5.15
2022-08-17T00:19:06.808Z,5.82
2022-08-17T00:21:05.226Z,5.50
2022-08-17T00:23:46.223Z,6.20
2022-08-17T00:26:43.529Z,6.25
2022-08-17T00:29:06.052Z,5.30
2022-08-17T00:31:36.737Z,5.13
2022-08-17T00:34:06.279Z,5.80
2022-08-17T00:36:34.236Z,6.00
2022-08-17T00:39:02.232Z,6.20
2022-08-17T00:41:30.987Z,6.45
2022-08-17T00:44:02.845Z,6.75
2022-08-17T00:46:34.869Z,6.32
2022-08-17T00:49:05.897Z,7.75
2022-08-17T00:51:38.659Z,7.07
2022-08-17T00:54:11.095Z,6.72
2022-08-17T00:56:42.847Z,5.82
2022-08-17T00:59:13.398Z,6.07
2022-08-17T01:01:41.888Z,5.57
2022-08-17T01:04:14.091Z,5.97
2022-08-17T01:06:46.983Z,5.63
2022-08-17T01:09:15.712Z,5.63
2022-08-17T01:11:44.302Z,5.15
2022-08-17T01:14:12.409Z,5.47
2022-08-17T01:16:40.750Z,5.78
2022-08-17T01:19:18.275Z,5.40
2022-08-17T01:21:54.305Z,5.53
2022-08-17T01:24:23.933Z,5.53
2022-08-17T01:26:51.861Z,5.38
2022-08-17T01:29:21.481Z,5.38
2022-08-17T01:31:53.893Z,5.05
2022-08-17T01:34:22.321Z,5.32
2022-08-17T01:36:51.186Z,5.22
2022-08-17T01:39:25.393Z,5.07
2022-08-17T01:41:57.415Z,4.57
2022-08-17T01:44:28.309Z,5.07
2022-08-17T01:46:56.287Z,5.43
2022-08-17T01:49:24.428Z,4.97
2022-08-17T01:51:52.449Z,5.30
2022-08-17T01:54:22.154Z,4.93
2022-08-17T01:56:53.085Z,4.95
2022-08-17T01:59:21.962Z,6.05
2022-08-17T02:01:50.502Z,5.13
2022-08-17T02:04:18.605Z,4.50
2022-08-17T02:06:53.661Z,4.55
2022-08-17T02:09:25.481Z,4.10
2022-08-17T02:11:56.619Z,4.53
2022-08-17T02:14:25.440Z,5.47
2022-08-17T02:16:53.854Z,4.32
2022-08-17T02:19:21.982Z,4.40
2022-08-17T02:21:52.028Z,4.75
2022-08-17T02:24:58.428Z,4.00
2022-08-17T02:27:12.580Z,5.32
2022-08-17T02:29:40.504Z,4.28
2022-08-17T02:32:20.663Z,4.70
2022-08-17T02:34:55.967Z,5.13
2022-08-17T02:37:23.873Z,4.10
2022-08-17T02:39:51.863Z,4.68
2022-08-17T02:42:27.793Z,4.57
2022-08-17T02:44:55.784Z,4.38
2022-08-17T02:47:23.823Z,4.75
2022-08-17T02:49:54.426Z,4.68
2022-08-17T02:52:42.646Z,4.20
2022-08-17T02:55:13.919Z,4.45
2022-08-17T02:57:43.602Z,4.57
2022-08-17T03:00:14.992Z,4.65
2022-08-17T03:02:44.849Z,5.18
2022-08-17T03:05:14.394Z,5.28
2022-08-17T03:07:43.141Z,6.47
2022-08-17T03:10:12.847Z,7.30
2022-08-17T03:12:44.325Z,7.47
2022-08-17T03:15:15.614Z,7.75
2022-08-17T03:17:44.135Z,7.38
2022-08-17T03:20:13.722Z,7.38
2022-08-17T03:22:52.992Z,8.13
2022-08-17T03:25:25.049Z,8.35
2022-08-17T03:27:55.054Z,7.35
2022-08-17T03:30:24.247Z,7.55
2022-08-17T03:32:55.240Z,7.00
2022-08-17T03:35:25.543Z,6.38
2022-08-17T03:37:57.009Z,6.22
2022-08-17T03:40:43.786Z,7.00
2022-08-17T03:43:21.037Z,7.32
2022-08-17T03:46:27.607Z,7.20
2022-08-17T03:49:21.954Z,6.57
2022-08-17T03:52:07.543Z,8.63
2022-08-17T03:54:53.001Z,6.85
2022-08-17T03:57:20.930Z,7.13
2022-08-17T03:59:50.305Z,6.47
2022-08-17T04:02:21.182Z,6.10
2022-08-17T04:04:51.015Z,5.78
2022-08-17T04:07:19.461Z,5.25
2022-08-17T04:09:47.521Z,6.75
2022-08-17T04:12:16.446Z,5.03
2022-08-17T04:14:53.208Z,5.55
2022-08-17T04:17:26.387Z,5.25
2022-08-17T04:19:55.345Z,5.03
2022-08-17T04:22:30.558Z,4.47
2022-08-17T04:25:06.633Z,4.95
2022-08-17T04:27:34.580Z,4.75
2022-08-17T04:30:02.740Z,5.35
2022-08-17T04:33:05.147Z,5.38
2022-08-17T04:35:22.748Z,4.72
2022-08-17T04:37:51.253Z,4.35
2022-08-17T04:40:37.892Z,3.92
2022-08-17T04:43:08.758Z,6.10
2022-08-17T04:45:40.785Z,6.18
2022-08-17T04:48:35.237Z,7.25
2022-08-17T04:51:04.810Z,6.65
2022-08-17T04:53:32.766Z,7.40
2022-08-17T04:56:00.716Z,7.32
2022-08-17T04:58:28.665Z,7.60
2022-08-17T05:00:56.687Z,7.05
2022-08-17T05:03:26.155Z,6.90
2022-08-17T05:05:54.451Z,6.78
2022-08-17T05:08:22.784Z,7.00
2022-08-17T05:10:51.201Z,7.20
2022-08-17T05:13:21.488Z,6.93
2022-08-17T05:15:51.574Z,6.45
2022-08-17T05:18:19.548Z,5.40
2022-08-17T05:20:49.025Z,5.43
2022-08-17T05:23:22.549Z,5.32
2022-08-17T05:25:54.703Z,5.40
2022-08-17T05:28:27.451Z,4.80
2022-08-17T05:30:57.278Z,4.80
2022-08-17T05:33:27.158Z,4.40
2022-08-17T05:35:58.563Z,4.93
2022-08-17T05:38:28.899Z,4.57
2022-08-17T05:40:57.365Z,4.35
2022-08-17T05:43:27.950Z,3.80
2022-08-17T05:46:03.701Z,4.18
2022-08-17T05:48:40.046Z,3.63
2022-08-17T05:51:28.968Z,3.47
2022-08-17T05:54:08.558Z,3.00
2022-08-17T05:56:53.294Z,2.25
2022-08-17T05:59:28.085Z,3.30
2022-08-17T06:02:03.992Z,3.78
2022-08-17T06:04:42.949Z,3.30
2022-08-17T06:07:20.839Z,2.95
2022-08-17T06:09:59.906Z,3.28
2022-08-17T06:12:38.435Z,3.30
2022-08-17T06:15:23.823Z,3.25
2022-08-17T06:17:56.541Z,3.58
2022-08-17T06:20:26.528Z,3.30
2022-08-17T06:23:03.857Z,3.47
2022-08-17T06:25:36.177Z,3.92
2022-08-17T06:28:08.906Z,3.22
2022-08-17T06:30:58.642Z,3.70
2022-08-17T06:33:34.395Z,3.22
2022-08-17T06:36:17.583Z,3.65
2022-08-17T06:38:56.321Z,3.78
2022-08-17T06:41:32.549Z,3.20
2022-08-17T06:44:43.563Z,5.53
2022-08-17T06:47:07.522Z,7.45
2022-08-17T06:49:41.841Z,4.00
2022-08-17T06:52:45.520Z,4.10
2022-08-17T06:55:09.498Z,4.97
2022-08-17T06:57:48.801Z,4.72
2022-08-17T07:00:19.656Z,5.18
2022-08-17T07:02:54.404Z,6.70
2022-08-17T07:05:26.673Z,6.88
2022-08-17T07:08:03.374Z,8.60
2022-08-17T07:10:39.072Z,8.27
2022-08-17T07:13:32.229Z,8.27
2022-08-17T07:16:09.041Z,9.32
2022-08-17T07:18:37.521Z,7.15
2022-08-17T07:21:17.530Z,7.53
2022-08-17T07:24:00.798Z,6.57
2022-08-17T07:26:30.423Z,9.57
2022-08-17T07:29:00.749Z,8.52
2022-08-17T07:31:33.723Z,9.88
2022-08-17T07:34:08.751Z,8.52
2022-08-17T07:36:36.816Z,7.82
2022-08-17T07:39:06.197Z,6.60
2022-08-17T07:41:53.298Z,5.18
2022-08-17T07:44:27.645Z,7.32
2022-08-17T07:47:13.388Z,8.25
2022-08-17T07:49:44.735Z,9.27
2022-08-17T07:52:50.573Z,9.20
2022-08-17T07:55:29.466Z,8.77
2022-08-17T07:58:00.754Z,8.05
2022-08-17T08:00:32.020Z,9.35
2022-08-17T08:03:13.662Z,8.35
2022-08-17T08:05:54.532Z,7.95
2022-08-17T08:08:42.407Z,6.10
2022-08-17T08:11:15.388Z,6.75
2022-08-17T08:13:46.114Z,5.72
2022-08-17T08:16:25.545Z,6.18
2022-08-17T08:18:57.243Z,4.95
2022-08-17T08:21:34.775Z,4.55
2022-08-17T08:24:40.598Z,4.35
2022-08-17T08:27:20.838Z,5.63
2022-08-17T08:29:56.336Z,5.65
2022-08-17T08:32:36.913Z,5.15
2022-08-17T08:35:08.965Z,5.10
2022-08-17T08:37:49.560Z,4.25
2022-08-17T08:40:34.658Z,5.00
2022-08-17T08:43:15.329Z,5.40
2022-08-17T08:45:56.727Z,5.20
2022-08-17T08:48:56.174Z,6.57
2022-08-17T08:51:36.164Z,6.75
2022-08-17T08:54:13.621Z,6.00
2022-08-17T08:57:11.855Z,6.65
2022-08-17T08:59:54.130Z,7.35
2022-08-17T09:02:42.062Z,8.05
2022-08-17T09:05:27.061Z,8.35
2022-08-17T09:08:05.105Z,8.88
2022-08-17T09:10:46.951Z,9.70
2022-08-17T09:13:23.173Z,9.73
2022-08-17T09:15:59.230Z,11.20
2022-08-17T09:19:03.606Z,12.50
2022-08-17T09:24:02.486Z,11.43
2022-08-17T09:26:35.513Z,10.93
2022-08-17T09:29:10.022Z,11.57
2022-08-17T09:31:49.194Z,11.10
2022-08-17T09:34:29.555Z,11.20
2022-08-17T09:37:07.913Z,11.23
2022-08-17T09:39:41.008Z,11.63
2022-08-17T09:42:15.503Z,12.50
2022-08-17T09:44:53.137Z,13.20
2022-08-17T09:47:30.598Z,13.52
2022-08-17T09:50:16.390Z,11.65
2022-08-17T09:52:44.980Z,10.73
2022-08-17T09:55:12.967Z,9.63
2022-08-17T09:57:55.320Z,7.97
2022-08-17T10:00:27.890Z,7.55
2022-08-17T10:03:21.820Z,7.38
2022-08-17T10:05:57.811Z,9.10
2022-08-17T10:08:35.124Z,7.93
2022-08-17T10:11:22.471Z,8.27
2022-08-17T10:14:37.735Z,6.50
2022-08-17T10:17:05.151Z,6.05
2022-08-17T10:19:38.997Z,5.43
2022-08-17T10:22:34.710Z,6.82
2022-08-17T10:25:26.154Z,5.95
2022-08-17T10:28:09.021Z,5.90
2022-08-17T10:31:16.620Z,6.57
2022-08-17T10:33:59.173Z,6.03
2022-08-17T10:36:43.244Z,5.10
2022-08-17T10:39:24.438Z,4.78
2022-08-17T10:41:57.421Z,3.80
2022-08-17T10:44:40.908Z,3.97
2022-08-17T10:47:11.798Z,4.07
2022-08-17T10:49:44.320Z,3.28
2022-08-17T10:52:42.284Z,3.50
2022-08-17T10:55:15.432Z,3.47
2022-08-17T10:57:45.903Z,4.43
2022-08-17T11:00:36.706Z,3.95
2022-08-17T11:03:17.638Z,3.80
2022-08-17T11:05:55.646Z,6.50
2022-08-17T11:09:06.495Z,5.93
2022-08-17T11:12:00.398Z,7.35
2022-08-17T11:14:44.065Z,6.30
2022-08-17T11:17:37.629Z,6.80
2022-08-17T11:20:31.350Z,10.20
2022-08-17T11:23:49.208Z,7.75
2022-08-17T11:26:26.413Z,10.02
2022-08-17T11:29:00.449Z,10.88
2022-08-17T11:31:38.593Z,11.00
2022-08-17T11:34:15.236Z,10.55
2022-08-17T11:37:19.537Z,9.02
2022-08-17T11:42:44.814Z,11.60
2022-08-17T11:45:35.040Z,7.97
2022-08-17T11:48:38.846Z,8.75
2022-08-17T11:51:32.096Z,11.05
2022-08-17T11:54:31.614Z,11.40
2022-08-17T11:56:56.784Z,12.23
2022-08-17T12:00:00.669Z,10.68
2022-08-17T12:03:12.341Z,10.75
2022-08-17T12:05:40.557Z,8.75
2022-08-17T12:08:20.241Z,9.18
2022-08-17T12:11:04.830Z,9.00
2022-08-17T12:13:45.765Z,9.13
2022-08-17T12:16:17.759Z,8.93
2022-08-17T12:18:52.227Z,8.90
2022-08-17T12:21:49.166Z,7.47
2022-08-17T12:24:32.895Z,8.52
2022-08-17T12:27:05.334Z,7.78
2022-08-17T12:29:38.477Z,6.78
2022-08-17T12:32:17.770Z,6.72
2022-08-17T12:34:48.499Z,4.97
2022-08-17T12:37:22.326Z,6.35
2022-08-17T12:39:58.747Z,4.60
2022-08-17T12:42:31.615Z,4.78
2022-08-17T12:45:01.049Z,4.68
2022-08-17T12:47:31.934Z,4.80
2022-08-17T12:50:28.749Z,3.67
2022-08-17T12:53:02.033Z,4.00
2022-08-17T12:55:36.532Z,3.30
2022-08-17T12:58:05.048Z,3.10
2022-08-17T13:00:38.127Z,3.08
2022-08-17T13:03:09.742Z,3.50
2022-08-17T13:05:43.878Z,3.33
2022-08-17T13:08:16.373Z,3.83
2022-08-17T13:10:45.351Z,3.57
2022-08-17T13:13:24.772Z,3.45
2022-08-17T13:15:57.296Z,3.03
2022-08-17T13:18:42.304Z,3.70
2022-08-17T13:21:19.282Z,3.58
2022-08-17T13:23:59.737Z,2.90
2022-08-17T13:26:32.736Z,4.13
2022-08-17T13:29:02.343Z,3.25
2022-08-17T13:31:47.480Z,3.40
2022-08-17T13:34:37.525Z,3.85
2022-08-17T13:37:33.685Z,2.75
2022-08-17T13:40:26.472Z,3.67
2022-08-17T13:42:56.605Z,2.63
2022-08-17T13:45:43.477Z,3.15
2022-08-17T13:48:23.670Z,2.97
2022-08-17T13:51:07.348Z,3.47
2022-08-17T13:53:55.160Z,3.58
2022-08-17T13:56:38.746Z,2.85
2022-08-17T13:59:11.381Z,3.50
2022-08-17T14:01:42.160Z,3.65
2022-08-17T14:04:14.189Z,3.15
2022-08-17T14:06:53.287Z,3.00
2022-08-17T14:09:27.750Z,3.13
2022-08-17T14:11:58.042Z,3.25
2022-08-17T14:14:26.690Z,3.05
2022-08-17T14:16:55.355Z,3.28
2022-08-17T14:19:25.804Z,2.85
2022-08-17T14:21:56.559Z,3.10
2022-08-17T14:24:27.256Z,3.45
2022-08-17T14:26:55.193Z,3.70
2022-08-17T14:29:26.009Z,3.10
2022-08-17T14:31:54.699Z,3.28
2022-08-17T14:34:24.912Z,3.58
2022-08-17T14:36:53.417Z,3.15
2022-08-17T14:39:21.861Z,3.55
2022-08-17T14:41:50.395Z,3.63
2022-08-17T14:44:18.334Z,3.72
2022-08-17T14:46:48.025Z,3.72
2022-08-17T14:49:16.232Z,4.57
2022-08-17T14:51:45.686Z,4.32
2022-08-17T14:54:33.105Z,3.70
2022-08-17T14:57:13.231Z,3.55
2022-08-17T14:59:54.784Z,3.70
2022-08-17T15:02:29.718Z,3.33
2022-08-17T15:05:00.751Z,3.67
2022-08-17T15:07:30.986Z,3.83
2022-08-17T15:10:00.908Z,4.65
2022-08-17T15:12:33.206Z,3.70
2022-08-17T15:15:02.114Z,4.38
2022-08-17T15:17:44.644Z,5.00
2022-08-17T15:20:16.204Z,4.20
2022-08-17T15:22:47.150Z,4.97
2022-08-17T15:25:15.260Z,4.38
2022-08-17T15:27:44.141Z,3.97
2022-08-17T15:30:13.741Z,4.70
2022-08-17T15:32:46.875Z,4.93
2022-08-17T15:35:27.395Z,4.78
2022-08-17T15:38:06.168Z,4.95
2022-08-17T15:40:40.038Z,4.45
2022-08-17T15:43:08.700Z,4.57
2022-08-17T15:45:36.755Z,4.75
2022-08-17T15:48:05.879Z,3.88
2022-08-17T15:50:33.857Z,4.60
2022-08-17T15:53:04.935Z,5.20
2022-08-17T15:55:34.021Z,4.90
2022-08-17T15:58:02.405Z,4.68
2022-08-17T16:00:30.794Z,5.00
2022-08-17T16:03:33.712Z,4.75
2022-08-17T16:05:51.340Z,5.72
2022-08-17T16:08:21.658Z,5.03
2022-08-17T16:10:50.541Z,5.82
2022-08-17T16:13:19.123Z,4.72
2022-08-17T16:15:56.622Z,4.43
2022-08-17T16:18:30.997Z,4.35
2022-08-17T16:21:23.633Z,3.67
2022-08-17T16:23:54.470Z,3.45
2022-08-17T16:26:23.260Z,3.72
2022-08-17T16:28:52.540Z,4.18
2022-08-17T16:31:21.267Z,3.75
2022-08-17T16:34:16.134Z,3.88
2022-08-17T16:36:39.761Z,3.00
2022-08-17T16:39:10.696Z,3.83
2022-08-17T16:41:45.237Z,3.40
2022-08-17T16:44:16.673Z,3.60
2022-08-17T16:46:46.305Z,3.53
2022-08-17T16:49:35.425Z,3.28
2022-08-17T16:52:04.354Z,3.15
2022-08-17T16:54:35.517Z,3.22
2022-08-17T16:57:05.370Z,3.67
2022-08-17T16:59:39.618Z,3.97
2022-08-17T17:02:14.865Z,3.55
2022-08-17T17:04:49.385Z,3.50
2022-08-17T17:07:44.483Z,3.83
2022-08-17T17:10:15.305Z,4.00
2022-08-17T17:13:02.303Z,3.92
2022-08-17T17:15:47.784Z,3.88
2022-08-17T17:18:17.720Z,3.85
2022-08-17T17:20:55.757Z,3.58
2022-08-17T17:23:38.239Z,3.95
2022-08-17T17:26:25.254Z,3.88
2022-08-17T17:29:13.068Z,3.80
2022-08-17T17:31:51.119Z,3.67
2022-08-17T17:34:20.729Z,3.55
2022-08-17T17:36:53.181Z,4.38
2022-08-17T17:39:29.421Z,3.67
2022-08-17T17:42:03.475Z,4.40
2022-08-17T17:44:35.210Z,3.63
2022-08-17T17:47:05.056Z,3.97
2022-08-17T17:49:37.157Z,3.83
2022-08-17T17:52:18.432Z,3.95
2022-08-17T17:55:06.793Z,4.03
2022-08-17T17:57:55.981Z,4.20
2022-08-17T18:00:27.121Z,4.30
2022-08-17T18:03:07.794Z,4.03
2022-08-17T18:05:55.235Z,3.25
2022-08-17T18:08:37.560Z,3.72
2022-08-17T18:11:24.503Z,3.88
2022-08-17T18:14:14.502Z,4.03
2022-08-17T18:16:43.313Z,3.10
2022-08-17T18:19:14.287Z,4.72
2022-08-17T18:21:44.778Z,3.42
2022-08-17T18:24:14.032Z,3.75
2022-08-17T18:26:48.264Z,3.80
2022-08-17T18:29:31.339Z,3.50
2022-08-17T18:32:26.161Z,3.58
2022-08-17T18:34:57.474Z,3.75
2022-08-17T18:37:45.162Z,3.50
2022-08-17T18:40:40.402Z,4.10
2022-08-17T18:43:13.398Z,4.32
2022-08-17T18:45:48.971Z,4.00
2022-08-17T18:48:27.698Z,4.15
2022-08-17T18:50:59.109Z,4.75
2022-08-17T18:53:34.538Z,4.35
2022-08-17T18:56:28.277Z,4.53
2022-08-17T18:59:18.412Z,4.88
2022-08-17T19:02:15.337Z,4.35
2022-08-17T19:05:00.351Z,5.70
2022-08-17T19:07:31.892Z,5.47
2022-08-17T19:10:08.044Z,4.85
2022-08-17T19:12:42.098Z,5.47
2022-08-17T19:15:12.652Z,5.65
2022-08-17T19:17:49.245Z,5.30
2022-08-17T19:20:21.031Z,5.10
2022-08-17T19:23:05.024Z,5.60
2022-08-17T19:25:37.221Z,5.57
2022-08-17T19:28:21.853Z,5.35
2022-08-17T19:30:56.100Z,5.50
2022-08-17T19:33:26.140Z,6.30
2022-08-17T19:36:04.302Z,5.97
2022-08-17T19:38:43.365Z,5.50
2022-08-17T19:41:22.960Z,6.28
2022-08-17T19:44:17.972Z,5.55
2022-08-17T19:46:56.073Z,5.90
2022-08-17T19:49:40.950Z,6.13
2022-08-17T19:52:33.414Z,5.95
2022-08-17T19:55:19.804Z,6.90
2022-08-17T19:58:02.240Z,7.93
2022-08-17T20:00:33.049Z,7.40
2022-08-17T20:03:06.621Z,6.28
2022-08-17T20:06:08.689Z,7.25
2022-08-17T20:08:31.636Z,7.25
2022-08-17T20:11:09.041Z,6.63
2022-08-17T20:13:42.023Z,7.20
2022-08-17T20:16:12.118Z,7.07
2022-08-17T20:18:49.907Z,7.10
2022-08-17T20:21:26.114Z,7.30
2022-08-17T20:24:01.048Z,8.93
2022-08-17T20:26:38.502Z,7.85
2022-08-17T20:29:29.527Z,7.43
2022-08-17T20:32:24.355Z,8.23
2022-08-17T20:35:21.378Z,7.15
2022-08-17T20:37:57.437Z,7.15
2022-08-17T20:40:30.934Z,7.85
2022-08-17T20:45:54.365Z,7.70
2022-08-17T20:51:24.199Z,7.82
2022-08-17T20:54:30.852Z,7.18
2022-08-17T20:57:01.355Z,7.82
2022-08-17T20:59:57.352Z,7.63
2022-08-17T21:05:40.442Z,7.78
2022-08-17T21:08:16.670Z,6.22
2022-08-17T21:10:48.347Z,6.82
2022-08-17T21:13:57.930Z,5.88
2022-08-17T21:16:36.582Z,6.55
2022-08-17T21:19:19.602Z,5.85
2022-08-17T21:21:59.258Z,6.60
2022-08-17T21:24:38.844Z,6.25
2022-08-17T21:27:21.864Z,5.60
2022-08-17T21:30:12.330Z,6.27
2022-08-17T21:32:43.419Z,6.45
2022-08-17T21:35:31.106Z,5.78
2022-08-17T21:38:05.238Z,5.40
2022-08-17T21:40:34.983Z,6.45
2022-08-17T21:43:23.704Z,6.00
2022-08-17T21:46:08.346Z,6.40
2022-08-17T21:48:48.204Z,5.28
2022-08-17T21:51:21.484Z,5.75
2022-08-17T21:53:53.173Z,5.30
2022-08-17T21:56:25.335Z,5.70
2022-08-17T21:59:00.586Z,5.93
2022-08-17T22:01:31.558Z,6.18
2022-08-17T22:04:04.066Z,6.90
2022-08-17T22:06:36.329Z,5.00
2022-08-17T22:09:11.907Z,5.40
2022-08-17T22:11:57.124Z,5.47
2022-08-17T22:14:51.821Z,5.40
2022-08-17T22:17:20.073Z,5.28
2022-08-17T22:19:51.909Z,5.13
2022-08-17T22:22:31.292Z,6.50
2022-08-17T22:25:03.190Z,6.07
2022-08-17T22:28:01.468Z,5.72
2022-08-17T22:30:40.093Z,6.50
2022-08-17T22:33:37.850Z,5.28
2022-08-17T22:36:24.701Z,5.85
2022-08-17T22:38:55.130Z,5.80
2022-08-17T22:41:35.136Z,5.75
2022-08-17T22:44:10.913Z,5.68
2022-08-17T22:46:49.539Z,5.53
2022-08-17T22:49:26.813Z,6.32
2022-08-17T22:52:20.119Z,5.55
2022-08-17T22:55:09.357Z,5.10
2022-08-17T22:57:51.944Z,5.78
2022-08-17T23:00:42.108Z,5.50
2022-08-17T23:03:19.734Z,5.47
2022-08-17T23:05:52.623Z,5.20
2022-08-17T23:08:21.874Z,5.72
2022-08-17T23:10:50.945Z,5.78
2022-08-17T23:13:18.947Z,6.30
2022-08-17T23:15:48.208Z,5.72
2022-08-17T23:18:17.905Z,6.03
2022-08-17T23:20:47.163Z,5.82
2022-08-17T23:23:18.733Z,5.70
2022-08-17T23:25:49.740Z,5.70
2022-08-17T23:28:17.766Z,6.15
2022-08-17T23:30:48.582Z,5.75
2022-08-17T23:33:22.093Z,5.90
2022-08-17T23:35:50.573Z,5.30
2022-08-17T23:38:18.805Z,5.40
2022-08-17T23:40:46.847Z,5.22
2022-08-17T23:43:23.521Z,5.28
2022-08-17T23:45:55.107Z,5.47
2022-08-17T23:48:35.032Z,5.20
2022-08-17T23:51:08.845Z,5.45
2022-08-17T23:53:38.742Z,5.25
2022-08-17T23:56:11.344Z,5.25
2022-08-17T23:58:42.206Z,4.78
